sensor_id;sensor_type;location;lat;lon;timestamp;pressure;altitude;pressure_sealevel;temperature;humidity
40788;BME280;26497;52.494;7.546;2024-03-25T00:01:31;99837.72;;;11.02;64.58
40788;BME280;26497;52.494;7.546;2024-03-25T00:03:57;99839.50;;;10.98;64.36
40788;BME280;26497;52.494;7.546;2024-03-25T00:06:24;99843.94;;;10.98;64.31
40788;BME280;26497;52.494;7.546;2024-03-25T00:08:52;99839.56;;;10.95;63.51
40788;BME280;26497;52.494;7.546;2024-03-25T00:11:18;99848.41;;;10.93;63.03
40788;BME280;26497;52.494;7.546;2024-03-25T00:13:44;99854.66;;;10.85;63.34
40788;BME280;26497;52.494;7.546;2024-03-25T00:16:12;99851.13;;;10.86;63.89
40788;BME280;26497;52.494;7.546;2024-03-25T00:18:37;99848.41;;;10.91;63.77
40788;BME280;26497;52.494;7.546;2024-03-25T00:21:04;99853.59;;;10.97;63.77
40788;BME280;26497;52.494;7.546;2024-03-25T00:23:30;99855.47;;;10.90;63.54
40788;BME280;26497;52.494;7.546;2024-03-25T00:25:59;99857.16;;;10.95;62.96
40788;BME280;26497;52.494;7.546;2024-03-25T00:28:25;99847.66;;;10.83;63.19
40788;BME280;26497;52.494;7.546;2024-03-25T00:30:51;99852.28;;;10.67;63.18
40788;BME280;26497;52.494;7.546;2024-03-25T00:33:17;99850.63;;;10.59;63.02
40788;BME280;26497;52.494;7.546;2024-03-25T00:35:44;99853.31;;;10.56;63.04
40788;BME280;26497;52.494;7.546;2024-03-25T00:38:11;99856.00;;;10.52;63.26
40788;BME280;26497;52.494;7.546;2024-03-25T00:40:38;99849.94;;;10.46;62.94
40788;BME280;26497;52.494;7.546;2024-03-25T00:43:05;99849.22;;;10.27;62.93
40788;BME280;26497;52.494;7.546;2024-03-25T00:45:32;99857.28;;;10.16;62.43
40788;BME280;26497;52.494;7.546;2024-03-25T00:47:58;99846.78;;;10.12;62.80
40788;BME280;26497;52.494;7.546;2024-03-25T00:50:26;99854.00;;;9.94;63.42
40788;BME280;26497;52.494;7.546;2024-03-25T00:52:52;99856.53;;;10.03;62.92
40788;BME280;26497;52.494;7.546;2024-03-25T00:55:18;99855.59;;;10.09;63.46
40788;BME280;26497;52.494;7.546;2024-03-25T00:57:45;99857.31;;;10.12;63.50
40788;BME280;26497;52.494;7.546;2024-03-25T01:00:14;99854.75;;;10.07;64.44
40788;BME280;26497;52.494;7.546;2024-03-25T01:02:41;99857.19;;;10.26;64.30
40788;BME280;26497;52.494;7.546;2024-03-25T01:05:08;99858.81;;;10.39;64.34
40788;BME280;26497;52.494;7.546;2024-03-25T01:07:34;99856.00;;;10.50;64.72
40788;BME280;26497;52.494;7.546;2024-03-25T01:10:01;99868.22;;;10.57;64.75
40788;BME280;26497;52.494;7.546;2024-03-25T01:12:27;99863.78;;;10.62;64.57
40788;BME280;26497;52.494;7.546;2024-03-25T01:14:54;99871.56;;;10.70;64.36
40788;BME280;26497;52.494;7.546;2024-03-25T01:17:21;99869.94;;;10.61;64.44
40788;BME280;26497;52.494;7.546;2024-03-25T01:19:48;99869.84;;;10.68;64.43
40788;BME280;26497;52.494;7.546;2024-03-25T01:22:15;99870.66;;;10.71;64.14
40788;BME280;26497;52.494;7.546;2024-03-25T01:24:41;99865.22;;;10.84;63.87
40788;BME280;26497;52.494;7.546;2024-03-25T01:27:07;99870.53;;;10.81;64.12
40788;BME280;26497;52.494;7.546;2024-03-25T01:29:34;99868.72;;;10.86;64.09
40788;BME280;26497;52.494;7.546;2024-03-25T01:32:00;99876.59;;;10.89;63.66
40788;BME280;26497;52.494;7.546;2024-03-25T01:34:29;99873.06;;;10.90;63.83
40788;BME280;26497;52.494;7.546;2024-03-25T01:36:55;99880.13;;;10.88;63.89
40788;BME280;26497;52.494;7.546;2024-03-25T01:39:22;99877.56;;;10.82;63.84
40788;BME280;26497;52.494;7.546;2024-03-25T01:41:49;99876.53;;;10.94;63.67
40788;BME280;26497;52.494;7.546;2024-03-25T01:44:16;99884.31;;;11.03;63.24
40788;BME280;26497;52.494;7.546;2024-03-25T01:46:42;99883.41;;;11.04;63.21
40788;BME280;26497;52.494;7.546;2024-03-25T01:49:09;99875.56;;;11.01;62.67
40788;BME280;26497;52.494;7.546;2024-03-25T01:51:38;99872.97;;;10.98;62.61
40788;BME280;26497;52.494;7.546;2024-03-25T01:54:05;99875.72;;;10.87;62.83
40788;BME280;26497;52.494;7.546;2024-03-25T01:56:34;99879.22;;;10.90;62.60
40788;BME280;26497;52.494;7.546;2024-03-25T01:59:01;99892.50;;;10.84;62.58
40788;BME280;26497;52.494;7.546;2024-03-25T02:01:27;99894.09;;;10.95;62.61
40788;BME280;26497;52.494;7.546;2024-03-25T02:03:55;99902.03;;;10.93;62.91
40788;BME280;26497;52.494;7.546;2024-03-25T02:06:21;99897.59;;;10.97;62.75
40788;BME280;26497;52.494;7.546;2024-03-25T02:08:50;99899.31;;;10.99;62.58
40788;BME280;26497;52.494;7.546;2024-03-25T02:11:16;99896.75;;;10.95;62.83
40788;BME280;26497;52.494;7.546;2024-03-25T02:13:43;99901.13;;;10.96;62.63
40788;BME280;26497;52.494;7.546;2024-03-25T02:16:09;99895.97;;;10.85;62.63
40788;BME280;26497;52.494;7.546;2024-03-25T02:18:36;99900.25;;;10.95;62.63
40788;BME280;26497;52.494;7.546;2024-03-25T02:21:02;99912.63;;;10.91;62.76
40788;BME280;26497;52.494;7.546;2024-03-25T02:23:29;99909.97;;;10.91;62.69
40788;BME280;26497;52.494;7.546;2024-03-25T02:25:56;99904.66;;;10.95;62.91
40788;BME280;26497;52.494;7.546;2024-03-25T02:28:23;99903.81;;;10.93;62.54
40788;BME280;26497;52.494;7.546;2024-03-25T02:30:49;99905.56;;;10.92;62.60
40788;BME280;26497;52.494;7.546;2024-03-25T02:33:16;99904.63;;;10.96;62.20
40788;BME280;26497;52.494;7.546;2024-03-25T02:35:42;99897.63;;;10.94;62.45
40788;BME280;26497;52.494;7.546;2024-03-25T02:38:10;99896.84;;;10.88;62.18
40788;BME280;26497;52.494;7.546;2024-03-25T02:40:36;99892.56;;;10.78;62.23
40788;BME280;26497;52.494;7.546;2024-03-25T02:43:05;99885.69;;;10.68;61.96
40788;BME280;26497;52.494;7.546;2024-03-25T02:45:33;99891.97;;;10.59;62.39
40788;BME280;26497;52.494;7.546;2024-03-25T02:47:59;99887.63;;;10.53;62.09
40788;BME280;26497;52.494;7.546;2024-03-25T02:50:25;99891.19;;;10.51;62.07
40788;BME280;26497;52.494;7.546;2024-03-25T02:52:52;99894.00;;;10.32;62.25
40788;BME280;26497;52.494;7.546;2024-03-25T02:55:18;99898.44;;;10.25;61.47
40788;BME280;26497;52.494;7.546;2024-03-25T02:57:45;99904.78;;;10.10;61.35
40788;BME280;26497;52.494;7.546;2024-03-25T03:00:13;99910.09;;;10.02;61.88
40788;BME280;26497;52.494;7.546;2024-03-25T03:02:46;99904.97;;;9.93;62.68
40788;BME280;26497;52.494;7.546;2024-03-25T03:05:12;99898.00;;;9.86;63.44
40788;BME280;26497;52.494;7.546;2024-03-25T03:07:38;99911.16;;;9.84;63.84
40788;BME280;26497;52.494;7.546;2024-03-25T03:10:05;99916.31;;;9.95;63.51
40788;BME280;26497;52.494;7.546;2024-03-25T03:12:32;99921.53;;;10.01;62.91
40788;BME280;26497;52.494;7.546;2024-03-25T03:14:58;99913.63;;;10.01;62.85
40788;BME280;26497;52.494;7.546;2024-03-25T03:17:26;99918.94;;;9.98;62.96
40788;BME280;26497;52.494;7.546;2024-03-25T03:19:52;99922.41;;;10.02;62.66
40788;BME280;26497;52.494;7.546;2024-03-25T03:22:19;99922.63;;;9.80;63.71
40788;BME280;26497;52.494;7.546;2024-03-25T03:24:45;99927.84;;;9.88;63.36
40788;BME280;26497;52.494;7.546;2024-03-25T03:27:12;99933.97;;;9.90;63.47
40788;BME280;26497;52.494;7.546;2024-03-25T03:29:38;99922.44;;;9.97;63.15
40788;BME280;26497;52.494;7.546;2024-03-25T03:32:06;99932.03;;;10.04;63.19
40788;BME280;26497;52.494;7.546;2024-03-25T03:34:33;99927.69;;;10.02;63.54
40788;BME280;26497;52.494;7.546;2024-03-25T03:37:00;99922.34;;;10.07;63.28
40788;BME280;26497;52.494;7.546;2024-03-25T03:39:26;99925.84;;;10.09;63.41
40788;BME280;26497;52.494;7.546;2024-03-25T03:41:53;99932.78;;;10.19;63.60
40788;BME280;26497;52.494;7.546;2024-03-25T03:44:19;99936.22;;;10.26;63.58
40788;BME280;26497;52.494;7.546;2024-03-25T03:46:45;99923.13;;;10.20;63.63
40788;BME280;26497;52.494;7.546;2024-03-25T03:49:11;99928.31;;;10.24;63.56
40788;BME280;26497;52.494;7.546;2024-03-25T03:51:40;99936.22;;;10.26;63.64
40788;BME280;26497;52.494;7.546;2024-03-25T03:54:06;99933.47;;;10.37;63.63
40788;BME280;26497;52.494;7.546;2024-03-25T03:56:33;99931.75;;;10.32;63.81
40788;BME280;26497;52.494;7.546;2024-03-25T03:58:58;99939.69;;;10.29;63.71
40788;BME280;26497;52.494;7.546;2024-03-25T04:01:25;99937.84;;;10.38;63.79
40788;BME280;26497;52.494;7.546;2024-03-25T04:03:51;99941.53;;;10.23;63.84
40788;BME280;26497;52.494;7.546;2024-03-25T04:06:18;99945.75;;;10.38;62.91
40788;BME280;26497;52.494;7.546;2024-03-25T04:08:46;99944.28;;;10.09;63.91
40788;BME280;26497;52.494;7.546;2024-03-25T04:11:13;99942.47;;;10.17;64.04
40788;BME280;26497;52.494;7.546;2024-03-25T04:13:39;99949.50;;;10.15;63.89
40788;BME280;26497;52.494;7.546;2024-03-25T04:16:06;99955.47;;;10.34;63.46
40788;BME280;26497;52.494;7.546;2024-03-25T04:18:33;99946.72;;;10.30;63.46
40788;BME280;26497;52.494;7.546;2024-03-25T04:21:00;99957.19;;;10.37;63.18
40788;BME280;26497;52.494;7.546;2024-03-25T04:23:26;99958.97;;;10.36;63.40
40788;BME280;26497;52.494;7.546;2024-03-25T04:25:54;99968.56;;;10.45;63.05
40788;BME280;26497;52.494;7.546;2024-03-25T04:28:20;99965.94;;;10.43;63.03
40788;BME280;26497;52.494;7.546;2024-03-25T04:30:51;99969.41;;;10.49;63.39
40788;BME280;26497;52.494;7.546;2024-03-25T04:33:17;99970.44;;;10.32;63.63
40788;BME280;26497;52.494;7.546;2024-03-25T04:35:45;99974.75;;;10.42;63.66
40788;BME280;26497;52.494;7.546;2024-03-25T04:38:11;99980.00;;;10.44;63.70
40788;BME280;26497;52.494;7.546;2024-03-25T04:40:37;99968.53;;;10.50;63.67
40788;BME280;26497;52.494;7.546;2024-03-25T04:43:05;99965.81;;;10.56;63.26
40788;BME280;26497;52.494;7.546;2024-03-25T04:45:31;99965.94;;;10.43;63.55
40788;BME280;26497;52.494;7.546;2024-03-25T04:47:57;99965.91;;;10.45;63.75
40788;BME280;26497;52.494;7.546;2024-03-25T04:50:23;99965.84;;;10.53;63.31
40788;BME280;26497;52.494;7.546;2024-03-25T04:52:49;99957.97;;;10.48;63.34
40788;BME280;26497;52.494;7.546;2024-03-25T04:55:15;99974.63;;;10.55;62.74
40788;BME280;26497;52.494;7.546;2024-03-25T04:57:41;99975.56;;;10.46;62.37
40788;BME280;26497;52.494;7.546;2024-03-25T05:00:09;99973.91;;;10.34;62.39
40788;BME280;26497;52.494;7.546;2024-03-25T05:02:36;99973.13;;;10.26;62.46
40788;BME280;26497;52.494;7.546;2024-03-25T05:05:03;99975.03;;;10.10;63.22
40788;BME280;26497;52.494;7.546;2024-03-25T05:07:29;99979.44;;;10.08;62.88
40788;BME280;26497;52.494;7.546;2024-03-25T05:09:55;99976.03;;;9.96;62.51
40788;BME280;26497;52.494;7.546;2024-03-25T05:12:21;99976.13;;;9.85;62.26
40788;BME280;26497;52.494;7.546;2024-03-25T05:14:47;99981.53;;;9.68;62.26
40788;BME280;26497;52.494;7.546;2024-03-25T05:17:14;99983.41;;;9.54;63.23
40788;BME280;26497;52.494;7.546;2024-03-25T05:19:40;99983.34;;;9.60;63.48
40788;BME280;26497;52.494;7.546;2024-03-25T05:22:06;99981.66;;;9.53;63.79
40788;BME280;26497;52.494;7.546;2024-03-25T05:24:32;99980.72;;;9.58;63.98
40788;BME280;26497;52.494;7.546;2024-03-25T05:26:58;99989.44;;;9.68;63.85
40788;BME280;26497;52.494;7.546;2024-03-25T05:29:24;99984.28;;;9.51;64.57
40788;BME280;26497;52.494;7.546;2024-03-25T05:31:57;99988.56;;;9.68;64.73
40788;BME280;26497;52.494;7.546;2024-03-25T05:34:26;99987.66;;;9.69;64.79
40788;BME280;26497;52.494;7.546;2024-03-25T05:36:52;99997.22;;;9.82;64.35
40788;BME280;26497;52.494;7.546;2024-03-25T05:39:18;99998.88;;;9.94;64.25
40788;BME280;26497;52.494;7.546;2024-03-25T05:41:45;100000.59;;;9.98;64.41
40788;BME280;26497;52.494;7.546;2024-03-25T05:44:11;100004.09;;;9.97;64.60
40788;BME280;26497;52.494;7.546;2024-03-25T05:46:38;100004.09;;;10.00;64.16
40788;BME280;26497;52.494;7.546;2024-03-25T05:49:04;99995.41;;;9.91;63.76
40788;BME280;26497;52.494;7.546;2024-03-25T05:51:32;99999.91;;;9.76;64.01
40788;BME280;26497;52.494;7.546;2024-03-25T05:53:58;100000.81;;;9.69;64.27
40788;BME280;26497;52.494;7.546;2024-03-25T05:56:24;100007.84;;;9.71;63.95
40788;BME280;26497;52.494;7.546;2024-03-25T05:58:50;100006.09;;;9.70;63.91
40788;BME280;26497;52.494;7.546;2024-03-25T06:01:17;100005.19;;;9.74;64.51
40788;BME280;26497;52.494;7.546;2024-03-25T06:03:43;100013.06;;;9.81;65.11
40788;BME280;26497;52.494;7.546;2024-03-25T06:06:09;100005.03;;;9.92;65.68
40788;BME280;26497;52.494;7.546;2024-03-25T06:08:36;100000.41;;;10.22;65.96
40788;BME280;26497;52.494;7.546;2024-03-25T06:11:02;99998.41;;;10.47;65.60
40788;BME280;26497;52.494;7.546;2024-03-25T06:13:28;99999.13;;;10.61;65.34
40788;BME280;26497;52.494;7.546;2024-03-25T06:15:55;100002.59;;;10.67;65.06
40788;BME280;26497;52.494;7.546;2024-03-25T06:18:21;100006.03;;;10.75;64.96
40788;BME280;26497;52.494;7.546;2024-03-25T06:20:47;100009.38;;;10.89;64.59
40788;BME280;26497;52.494;7.546;2024-03-25T06:23:21;100019.91;;;10.89;64.68
40788;BME280;26497;52.494;7.546;2024-03-25T06:25:50;100016.22;;;11.04;64.60
40788;BME280;26497;52.494;7.546;2024-03-25T06:28:16;100025.88;;;11.07;64.19
40788;BME280;26497;52.494;7.546;2024-03-25T06:30:42;100020.41;;;11.23;64.21
40788;BME280;26497;52.494;7.546;2024-03-25T06:33:26;100017.69;;;11.27;64.36
40788;BME280;26497;52.494;7.546;2024-03-25T06:36:10;100017.50;;;11.40;63.65
40788;BME280;26497;52.494;7.546;2024-03-25T06:38:36;100021.81;;;11.45;63.61
40788;BME280;26497;52.494;7.546;2024-03-25T06:41:04;100018.28;;;11.48;63.85
40788;BME280;26497;52.494;7.546;2024-03-25T06:43:30;100014.56;;;11.60;64.36
40788;BME280;26497;52.494;7.546;2024-03-25T06:45:56;100020.31;;;11.88;63.92
40788;BME280;26497;52.494;7.546;2024-03-25T06:48:22;100018.31;;;12.03;63.83
40788;BME280;26497;52.494;7.546;2024-03-25T06:50:54;100028.53;;;12.26;62.69
40788;BME280;26497;52.494;7.546;2024-03-25T06:53:21;100029.38;;;12.28;62.37
40788;BME280;26497;52.494;7.546;2024-03-25T06:55:54;100030.31;;;12.22;61.71
40788;BME280;26497;52.494;7.546;2024-03-25T06:58:22;100029.63;;;12.11;61.19
40788;BME280;26497;52.494;7.546;2024-03-25T07:00:49;100022.91;;;11.90;61.15
40788;BME280;26497;52.494;7.546;2024-03-25T07:03:15;100024.91;;;11.75;60.76
40788;BME280;26497;52.494;7.546;2024-03-25T07:05:41;100028.75;;;11.54;60.55
40788;BME280;26497;52.494;7.546;2024-03-25T07:08:09;100033.31;;;11.43;62.16
40788;BME280;26497;52.494;7.546;2024-03-25T07:10:35;100032.06;;;12.23;66.60
40788;BME280;26497;52.494;7.546;2024-03-25T07:13:01;100025.03;;;13.57;63.85
40788;BME280;26497;52.494;7.546;2024-03-25T07:15:29;100026.69;;;14.34;60.18
40788;BME280;26497;52.494;7.546;2024-03-25T07:17:55;100033.00;;;15.26;59.06
40788;BME280;26497;52.494;7.546;2024-03-25T07:20:21;100030.00;;;15.96;52.06
40788;BME280;26497;52.494;7.546;2024-03-25T07:22:47;100026.69;;;15.89;49.57
40788;BME280;26497;52.494;7.546;2024-03-25T07:25:13;100019.06;;;16.05;49.52
40788;BME280;26497;52.494;7.546;2024-03-25T07:27:39;100020.66;;;15.82;47.78
40788;BME280;26497;52.494;7.546;2024-03-25T07:30:06;100021.22;;;16.20;47.16
40788;BME280;26497;52.494;7.546;2024-03-25T07:32:34;100016.47;;;16.56;46.76
40788;BME280;26497;52.494;7.546;2024-03-25T07:35:00;100019.59;;;16.67;45.61
40788;BME280;26497;52.494;7.546;2024-03-25T07:37:26;100022.47;;;16.35;44.52
40788;BME280;26497;52.494;7.546;2024-03-25T07:39:52;100031.13;;;15.88;44.74
40788;BME280;26497;52.494;7.546;2024-03-25T07:42:18;100030.63;;;15.47;46.26
40788;BME280;26497;52.494;7.546;2024-03-25T07:44:44;100029.97;;;15.39;46.88
40788;BME280;26497;52.494;7.546;2024-03-25T07:47:10;100032.22;;;15.53;47.23
40788;BME280;26497;52.494;7.546;2024-03-25T07:49:38;100033.81;;;15.58;47.10
40788;BME280;26497;52.494;7.546;2024-03-25T07:52:05;100032.69;;;15.37;46.34
40788;BME280;26497;52.494;7.546;2024-03-25T07:54:31;100039.50;;;14.86;46.60
40788;BME280;26497;52.494;7.546;2024-03-25T07:56:57;100041.72;;;14.68;47.57
40788;BME280;26497;52.494;7.546;2024-03-25T07:59:23;100043.44;;;14.71;48.27
40788;BME280;26497;52.494;7.546;2024-03-25T08:01:49;100041.50;;;14.78;47.85
40788;BME280;26497;52.494;7.546;2024-03-25T08:04:15;100037.75;;;14.85;48.25
40788;BME280;26497;52.494;7.546;2024-03-25T08:06:43;100041.75;;;15.00;47.61
40788;BME280;26497;52.494;7.546;2024-03-25T08:09:09;100041.78;;;15.28;47.36
40788;BME280;26497;52.494;7.546;2024-03-25T08:11:35;100046.41;;;15.82;47.19
40788;BME280;26497;52.494;7.546;2024-03-25T08:14:01;100040.47;;;16.00;45.23
40788;BME280;26497;52.494;7.546;2024-03-25T08:16:27;100041.16;;;16.07;45.59
40788;BME280;26497;52.494;7.546;2024-03-25T08:18:53;100051.38;;;16.46;45.06
40788;BME280;26497;52.494;7.546;2024-03-25T08:21:19;100050.44;;;17.69;44.88
40788;BME280;26497;52.494;7.546;2024-03-25T08:23:46;100040.47;;;19.59;41.18
40788;BME280;26497;52.494;7.546;2024-03-25T08:26:12;100041.81;;;21.11;37.09
40788;BME280;26497;52.494;7.546;2024-03-25T08:28:38;100040.28;;;22.33;33.40
40788;BME280;26497;52.494;7.546;2024-03-25T08:31:04;100033.06;;;22.03;34.07
40788;BME280;26497;52.494;7.546;2024-03-25T08:33:30;100043.66;;;21.90;33.56
40788;BME280;26497;52.494;7.546;2024-03-25T08:35:56;100037.19;;;22.25;31.91
40788;BME280;26497;52.494;7.546;2024-03-25T08:38:22;100041.75;;;21.60;32.68
40788;BME280;26497;52.494;7.546;2024-03-25T08:40:50;100045.69;;;21.21;34.44
40788;BME280;26497;52.494;7.546;2024-03-25T08:43:16;100044.38;;;20.08;34.41
40788;BME280;26497;52.494;7.546;2024-03-25T08:45:42;100042.84;;;19.08;36.88
40788;BME280;26497;52.494;7.546;2024-03-25T08:48:08;100043.91;;;19.04;38.07
40788;BME280;26497;52.494;7.546;2024-03-25T08:50:34;100049.50;;;19.19;39.12
40788;BME280;26497;52.494;7.546;2024-03-25T08:53:00;100041.31;;;19.03;38.00
40788;BME280;26497;52.494;7.546;2024-03-25T08:55:27;100044.63;;;18.87;38.17
40788;BME280;26497;52.494;7.546;2024-03-25T08:57:54;100045.25;;;18.52;38.72
40788;BME280;26497;52.494;7.546;2024-03-25T09:00:20;100043.94;;;18.63;39.00
40788;BME280;26497;52.494;7.546;2024-03-25T09:02:46;100050.56;;;18.54;38.85
40788;BME280;26497;52.494;7.546;2024-03-25T09:05:12;100056.81;;;17.88;38.97
40788;BME280;26497;52.494;7.546;2024-03-25T09:07:38;100057.31;;;17.05;39.96
40788;BME280;26497;52.494;7.546;2024-03-25T09:10:05;100053.75;;;16.79;41.36
40788;BME280;26497;52.494;7.546;2024-03-25T09:12:49;100045.53;;;16.86;42.63
40788;BME280;26497;52.494;7.546;2024-03-25T09:15:17;100048.50;;;16.78;43.38
40788;BME280;26497;52.494;7.546;2024-03-25T09:17:43;100058.88;;;16.35;42.38
40788;BME280;26497;52.494;7.546;2024-03-25T09:20:09;100056.63;;;15.94;43.41
40788;BME280;26497;52.494;7.546;2024-03-25T09:22:35;100054.03;;;15.92;44.10
40788;BME280;26497;52.494;7.546;2024-03-25T09:25:01;100057.06;;;15.80;44.04
40788;BME280;26497;52.494;7.546;2024-03-25T09:27:27;100054.41;;;15.52;45.73
40788;BME280;26497;52.494;7.546;2024-03-25T09:29:53;100049.81;;;15.27;45.41
40788;BME280;26497;52.494;7.546;2024-03-25T09:32:21;100055.88;;;15.32;46.79
40788;BME280;26497;52.494;7.546;2024-03-25T09:34:46;100042.44;;;15.37;47.71
40788;BME280;26497;52.494;7.546;2024-03-25T09:37:12;100050.00;;;15.79;48.60
40788;BME280;26497;52.494;7.546;2024-03-25T09:39:38;100040.19;;;16.10;48.56
40788;BME280;26497;52.494;7.546;2024-03-25T09:42:05;100042.19;;;16.30;47.15
40788;BME280;26497;52.494;7.546;2024-03-25T09:44:33;100045.25;;;16.17;46.34
40788;BME280;26497;52.494;7.546;2024-03-25T09:47:00;100051.56;;;15.88;46.96
40788;BME280;26497;52.494;7.546;2024-03-25T09:49:28;100051.59;;;15.56;47.52
40788;BME280;26497;52.494;7.546;2024-03-25T09:51:54;100066.34;;;15.07;47.83
40788;BME280;26497;52.494;7.546;2024-03-25T09:54:20;100062.66;;;14.81;48.42
40788;BME280;26497;52.494;7.546;2024-03-25T09:56:46;100062.91;;;14.71;49.68
40788;BME280;26497;52.494;7.546;2024-03-25T09:59:12;100054.16;;;14.66;50.25
40788;BME280;26497;52.494;7.546;2024-03-25T10:01:39;100052.63;;;14.57;50.25
40788;BME280;26497;52.494;7.546;2024-03-25T10:04:04;100050.03;;;14.89;50.59
40788;BME280;26497;52.494;7.546;2024-03-25T10:06:32;100044.28;;;15.34;50.89
40788;BME280;26497;52.494;7.546;2024-03-25T10:08:58;100049.69;;;16.17;50.55
40788;BME280;26497;52.494;7.546;2024-03-25T10:11:24;100046.75;;;17.02;48.59
40788;BME280;26497;52.494;7.546;2024-03-25T10:13:50;100049.75;;;17.18;45.82
40788;BME280;26497;52.494;7.546;2024-03-25T10:16:16;100046.66;;;17.05;45.60
40788;BME280;26497;52.494;7.546;2024-03-25T10:18:42;100042.84;;;16.87;45.17
40788;BME280;26497;52.494;7.546;2024-03-25T10:21:10;100039.84;;;16.71;46.36
40788;BME280;26497;52.494;7.546;2024-03-25T10:23:40;100044.16;;;17.24;46.97
40788;BME280;26497;52.494;7.546;2024-03-25T10:26:06;100036.31;;;18.33;41.37
40788;BME280;26497;52.494;7.546;2024-03-25T10:28:32;100038.34;;;20.22;40.83
40788;BME280;26497;52.494;7.546;2024-03-25T10:31:03;100024.72;;;21.45;38.07
40788;BME280;26497;52.494;7.546;2024-03-25T10:33:29;100027.28;;;21.95;35.05
40788;BME280;26497;52.494;7.546;2024-03-25T10:35:55;100025.47;;;22.26;31.64
40788;BME280;26497;52.494;7.546;2024-03-25T10:38:22;100021.97;;;22.09;33.00
40788;BME280;26497;52.494;7.546;2024-03-25T10:40:51;100024.81;;;22.22;31.61
40788;BME280;26497;52.494;7.546;2024-03-25T10:43:22;100021.78;;;22.88;30.84
40788;BME280;26497;52.494;7.546;2024-03-25T10:45:50;100024.34;;;23.48;30.24
40788;BME280;26497;52.494;7.546;2024-03-25T10:48:20;100023.63;;;23.31;29.36
40788;BME280;26497;52.494;7.546;2024-03-25T10:50:47;100020.63;;;23.07;27.73
40788;BME280;26497;52.494;7.546;2024-03-25T10:53:14;100015.06;;;23.24;27.38
40788;BME280;26497;52.494;7.546;2024-03-25T10:55:43;100010.22;;;23.44;27.65
40788;BME280;26497;52.494;7.546;2024-03-25T10:58:11;100012.41;;;24.34;30.43
40788;BME280;26497;52.494;7.546;2024-03-25T11:00:37;100008.09;;;25.22;27.90
40788;BME280;26497;52.494;7.546;2024-03-25T11:03:04;100004.25;;;25.51;26.17
40788;BME280;26497;52.494;7.546;2024-03-25T11:05:30;100005.53;;;24.69;27.31
40788;BME280;26497;52.494;7.546;2024-03-25T11:07:56;99999.50;;;23.99;26.48
40788;BME280;26497;52.494;7.546;2024-03-25T11:10:28;100001.34;;;23.56;27.89
40788;BME280;26497;52.494;7.546;2024-03-25T11:12:55;100006.88;;;22.23;26.90
40788;BME280;26497;52.494;7.546;2024-03-25T11:15:22;100007.75;;;21.61;28.78
40788;BME280;26497;52.494;7.546;2024-03-25T11:17:48;100011.31;;;20.96;28.77
40788;BME280;26497;52.494;7.546;2024-03-25T11:20:15;100009.53;;;20.27;30.00
40788;BME280;26497;52.494;7.546;2024-03-25T11:22:48;100002.50;;;20.25;31.83
40788;BME280;26497;52.494;7.546;2024-03-25T11:25:14;99998.75;;;21.14;33.43
40788;BME280;26497;52.494;7.546;2024-03-25T11:27:42;99991.22;;;21.20;29.92
40788;BME280;26497;52.494;7.546;2024-03-25T11:30:09;99990.94;;;21.25;30.50
40788;BME280;26497;52.494;7.546;2024-03-25T11:32:45;99990.16;;;21.07;29.58
40788;BME280;26497;52.494;7.546;2024-03-25T11:35:11;99989.53;;;20.86;30.03
40788;BME280;26497;52.494;7.546;2024-03-25T11:37:40;99975.91;;;21.23;29.47
40788;BME280;26497;52.494;7.546;2024-03-25T11:40:08;99984.22;;;21.34;29.78
40788;BME280;26497;52.494;7.546;2024-03-25T11:42:34;99970.28;;;22.06;28.78
40788;BME280;26497;52.494;7.546;2024-03-25T11:45:01;99965.81;;;22.66;27.13
40788;BME280;26497;52.494;7.546;2024-03-25T11:47:27;99966.84;;;22.49;27.50
40788;BME280;26497;52.494;7.546;2024-03-25T11:49:54;99969.56;;;22.63;27.35
40788;BME280;26497;52.494;7.546;2024-03-25T11:52:20;99961.50;;;22.18;26.73
40788;BME280;26497;52.494;7.546;2024-03-25T11:54:53;99961.50;;;22.18;28.97
40788;BME280;26497;52.494;7.546;2024-03-25T11:57:20;99958.13;;;22.15;29.82
40788;BME280;26497;52.494;7.546;2024-03-25T11:59:46;99955.91;;;21.76;28.78
40788;BME280;26497;52.494;7.546;2024-03-25T12:02:12;99953.19;;;21.14;29.74
40788;BME280;26497;52.494;7.546;2024-03-25T12:04:38;99958.97;;;20.72;29.83
40788;BME280;26497;52.494;7.546;2024-03-25T12:07:10;99948.72;;;20.97;32.42
40788;BME280;26497;52.494;7.546;2024-03-25T12:09:36;99957.75;;;21.12;30.07
40788;BME280;26497;52.494;7.546;2024-03-25T12:12:20;99946.88;;;21.15;29.84
40788;BME280;26497;52.494;7.546;2024-03-25T12:14:46;99942.81;;;20.56;29.04
40788;BME280;26497;52.494;7.546;2024-03-25T12:17:12;99944.69;;;20.38;29.26
40788;BME280;26497;52.494;7.546;2024-03-25T12:19:38;99940.28;;;19.84;29.64
40788;BME280;26497;52.494;7.546;2024-03-25T12:22:04;99934.31;;;19.42;30.18
40788;BME280;26497;52.494;7.546;2024-03-25T12:24:31;99936.81;;;19.45;30.83
40788;BME280;26497;52.494;7.546;2024-03-25T12:26:57;99929.00;;;19.60;31.62
40788;BME280;26497;52.494;7.546;2024-03-25T12:29:23;99924.97;;;20.06;30.81
40788;BME280;26497;52.494;7.546;2024-03-25T12:31:56;99923.91;;;21.25;31.04
40788;BME280;26497;52.494;7.546;2024-03-25T12:34:22;99916.28;;;22.56;28.61
40788;BME280;26497;52.494;7.546;2024-03-25T12:36:48;99921.31;;;23.73;28.00
40788;BME280;26497;52.494;7.546;2024-03-25T12:39:18;99916.06;;;24.25;24.89
40788;BME280;26497;52.494;7.546;2024-03-25T12:41:45;99911.72;;;24.61;24.46
40788;BME280;26497;52.494;7.546;2024-03-25T12:44:12;99905.47;;;24.86;23.30
40788;BME280;26497;52.494;7.546;2024-03-25T12:46:38;99903.59;;;23.83;24.12
40788;BME280;26497;52.494;7.546;2024-03-25T12:49:04;99904.50;;;22.73;26.10
40788;BME280;26497;52.494;7.546;2024-03-25T12:51:31;99903.59;;;22.72;26.55
40788;BME280;26497;52.494;7.546;2024-03-25T12:53:57;99892.81;;;22.00;25.87
40788;BME280;26497;52.494;7.546;2024-03-25T12:56:23;99900.91;;;21.37;27.65